Time;durP1;ratioP1;P1;durP2;ratioP2;P2;SDS_P1;SDS_P2;PMS_P1;PMS_P2;Temp;Humidity;BMP_temperature;BMP_pressure;BME280_temperature;BME280_humidity;BME280_pressure;Samples;Min_cycle;Max_cycle;Signal;HPM_P1;HPM_P2
2022/09/11 00:01:30;;;;;;;17.15;6.88;;;;;;;21.45;66.20;100276.09;6209677;23;20060;-77
2022/09/11 00:03:57;;;;;;;14.10;7.38;;;;;;;21.35;66.20;100257.53;6213785;23;20025;-79
2022/09/11 00:06:25;;;;;;;19.25;8.40;;;;;;;21.49;66.49;100274.19;6209597;23;20027;-78
2022/09/11 00:08:59;;;;;;;16.83;6.95;;;;;;;21.48;66.47;100270.53;6212196;23;20366;-78
2022/09/11 00:11:33;;;;;;;13.55;7.10;;;;;;;21.34;66.00;100250.22;6212693;23;20398;-78
2022/09/11 00:14:00;;;;;;;17.52;7.55;;;;;;;21.45;66.34;100285.44;6213956;23;20020;-79
2022/09/11 00:16:33;;;;;;;12.82;7.32;;;;;;;21.32;66.34;100255.41;6210685;23;20013;-79
2022/09/11 00:19:19;;;;;;;13.23;6.57;;;;;;;21.29;66.51;100253.28;6213403;23;20021;-78
2022/09/11 00:21:49;;;;;;;15.65;6.32;;;;;;;21.37;66.12;100263.72;6213266;23;20025;-78
2022/09/11 00:24:16;;;;;;;13.43;6.65;;;;;;;21.43;65.98;100282.13;6212667;23;20031;-78
2022/09/11 00:26:46;;;;;;;12.55;5.53;;;;;;;21.32;66.13;100277.28;6212872;23;20424;-78
2022/09/11 00:29:13;;;;;;;;;;;;;;;21.28;65.94;100280.03;6213582;23;20025;-78
2022/09/11 00:31:40;;;;;;;12.65;6.63;;;;;;;21.19;65.93;100265.13;6210804;23;19916;-78
2022/09/11 00:34:07;;;;;;;16.73;7.80;;;;;;;21.22;65.88;100264.41;6211533;23;20056;-77
2022/09/11 00:36:36;;;;;;;15.60;8.65;;;;;;;21.29;66.02;100276.00;6214220;23;20025;-77
2022/09/11 00:39:03;;;;;;;12.40;6.57;;;;;;;21.22;65.73;100264.41;6211924;23;20518;-77
2022/09/11 00:41:34;;;;;;;15.77;7.80;;;;;;;21.22;65.82;100268.09;6210831;23;20021;-79
2022/09/11 00:44:04;;;;;;;9.40;5.70;;;;;;;21.21;66.05;100268.47;6209916;23;20028;-79
2022/09/11 00:46:36;;;;;;;12.27;6.60;;;;;;;21.22;65.93;100270.09;6209102;23;20020;-78
2022/09/11 00:49:16;;;;;;;13.30;7.60;;;;;;;21.15;65.70;100253.66;6211995;23;20021;-78
2022/09/11 00:51:45;;;;;;;;;;;;;;;21.03;65.89;100260.22;6212987;23;20455;-79
2022/09/11 00:54:15;;;;;;;9.45;4.80;;;;;;;20.94;65.93;100227.47;6211001;23;20662;-77
2022/09/11 00:56:42;;;;;;;18.30;8.68;;;;;;;21.06;65.87;100239.63;6212019;23;20020;-77
2022/09/11 00:59:11;;;;;;;14.80;8.27;;;;;;;20.94;66.21;100214.09;6212193;23;20027;-78
2022/09/11 01:01:38;;;;;;;13.73;7.68;;;;;;;20.89;66.06;100228.56;6210535;23;20456;-77
2022/09/11 01:04:06;;;;;;;13.50;7.07;;;;;;;20.83;66.15;100219.47;6213399;23;20056;-77
2022/09/11 01:06:33;;;;;;;11.05;5.47;;;;;;;20.83;66.06;100212.97;6214359;23;20046;-76
2022/09/11 01:09:00;;;;;;;7.55;4.22;;;;;;;20.86;66.24;100209.41;6212451;23;20409;-77
2022/09/11 01:11:47;;;;;;;12.05;5.68;;;;;;;20.92;66.18;100210.81;6213989;23;20036;-77
2022/09/11 01:14:29;;;;;;;12.00;5.13;;;;;;;20.79;65.95;100207.19;6214535;23;20031;-77
2022/09/11 01:17:21;;;;;;;11.35;5.65;;;;;;;20.90;66.13;100218.84;6213690;23;20031;-77
2022/09/11 01:20:32;;;;;;;12.38;4.97;;;;;;;20.68;66.02;100199.50;6214240;23;20047;-78
2022/09/11 01:23:25;;;;;;;10.48;4.90;;;;;;;20.78;66.46;100216.03;6202678;23;20048;-77
2022/09/11 01:26:06;;;;;;;10.65;5.05;;;;;;;20.51;66.19;100186.41;6211561;23;20455;-79
2022/09/11 01:28:57;;;;;;;10.88;5.40;;;;;;;20.69;66.16;100221.84;6213774;23;20040;-77
2022/09/11 01:31:29;;;;;;;11.70;4.22;;;;;;;20.66;66.37;100210.41;6212222;23;20020;-77
2022/09/11 01:33:58;;;;;;;9.23;5.30;;;;;;;20.58;66.26;100195.13;6210739;23;20078;-77
2022/09/11 01:36:35;;;;;;;10.30;5.03;;;;;;;20.59;65.92;100206.13;6213834;23;20017;-77
2022/09/11 01:39:03;;;;;;;9.70;4.82;;;;;;;20.53;66.12;100195.41;6211926;23;20028;-78
2022/09/11 01:42:13;;;;;;;12.43;4.82;;;;;;;20.61;66.09;100216.28;6210823;23;20031;-77
2022/09/11 01:44:49;;;;;;;;;;;;;;;20.47;66.15;100199.63;6214529;23;20058;-78
2022/09/11 01:47:18;;;;;;;7.20;3.70;;;;;;;20.40;66.16;100171.84;6213715;23;19920;-79
2022/09/11 01:49:54;;;;;;;9.23;4.90;;;;;;;20.43;66.32;100191.00;6213849;23;20316;-78
2022/09/11 01:52:26;;;;;;;9.57;5.10;;;;;;;20.45;66.34;100182.97;6215235;23;20020;-78
2022/09/11 01:55:00;;;;;;;10.60;5.47;;;;;;;20.39;66.39;100172.22;6212504;23;20363;-78
2022/09/11 01:57:48;;;;;;;11.00;4.95;;;;;;;20.48;66.40;100179.41;6212357;23;20025;-78
2022/09/11 02:00:16;;;;;;;11.15;7.05;;;;;;;20.53;66.35;100182.03;6209497;23;20355;-77
2022/09/11 02:02:48;;;;;;;15.02;7.13;;;;;;;20.44;66.47;100161.44;6212831;23;20028;-79
2022/09/11 02:05:24;;;;;;;12.75;6.13;;;;;;;20.32;66.46;100135.94;6212649;23;20025;-76
2022/09/11 02:08:10;;;;;;;22.33;9.77;;;;;;;20.31;66.34;100132.28;6213241;23;20021;-78
2022/09/11 02:10:46;;;;;;;15.07;7.53;;;;;;;20.43;66.43;100141.97;6213772;23;20028;-77
2022/09/11 02:13:29;;;;;;;10.85;6.22;;;;;;;20.58;66.32;100156.28;6210542;23;20025;-77
2022/09/11 02:16:10;;;;;;;19.27;6.88;;;;;;;20.49;66.25;100147.03;6213977;23;20028;-78
2022/09/11 02:18:47;;;;;;;17.08;7.15;;;;;;;20.40;66.28;100120.81;6212055;23;20028;-78
2022/09/11 02:21:14;;;;;;;17.10;8.38;;;;;;;20.48;66.78;100139.72;6212309;23;20044;-77
2022/09/11 02:23:41;;;;;;;19.73;8.77;;;;;;;20.47;66.71;100126.69;6213529;23;20028;-76
2022/09/11 02:26:11;;;;;;;17.02;7.10;;;;;;;20.47;66.59;100109.66;6214509;23;20095;-77
2022/09/11 02:28:39;;;;;;;9.18;5.68;;;;;;;20.59;66.72;100135.22;6214780;23;20021;-77
2022/09/11 02:31:06;;;;;;;14.93;7.03;;;;;;;20.57;66.58;100125.41;6212173;23;20403;-77
2022/09/11 02:33:35;;;;;;;14.90;7.93;;;;;;;20.64;66.74;100130.47;6212976;23;20464;-77
2022/09/11 02:36:21;;;;;;;14.82;7.93;;;;;;;20.63;66.78;100123.16;6213543;23;20025;-77
2022/09/11 02:39:06;;;;;;;17.92;6.80;;;;;;;20.72;66.75;100121.00;6214247;23;20027;-77
2022/09/11 02:41:48;;;;;;;10.95;6.35;;;;;;;20.64;66.78;100111.44;6210970;23;20096;-77
2022/09/11 02:44:30;;;;;;;14.45;7.57;;;;;;;20.68;66.89;100111.53;6212229;23;20027;-77
2022/09/11 02:47:03;;;;;;;11.10;6.07;;;;;;;20.74;67.16;100108.09;6211322;23;20024;-77
2022/09/11 02:49:58;;;;;;;9.45;5.80;;;;;;;20.69;67.33;100094.19;6212701;23;20028;-77
2022/09/11 02:52:46;;;;;;;11.38;5.60;;;;;;;20.56;67.84;100089.72;6212789;23;20020;-77
2022/09/11 02:55:28;;;;;;;8.90;4.73;;;;;;;20.50;68.49;100091.97;6211687;23;20020;-77
2022/09/11 02:58:03;;;;;;;7.30;4.22;;;;;;;20.43;68.62;100085.22;6214365;23;20254;-77
2022/09/11 03:00:30;;;;;;;9.77;4.45;;;;;;;20.35;68.46;100067.19;6209662;23;20024;-77
2022/09/11 03:02:58;;;;;;;9.25;5.18;;;;;;;20.00;68.18;100045.06;6211826;23;20021;-77
2022/09/11 03:05:24;;;;;;;8.45;4.93;;;;;;;19.99;69.03;100068.88;6212545;23;20025;-77
2022/09/11 03:07:51;;;;;;;7.93;4.45;;;;;;;19.89;68.71;100061.69;6213560;23;20021;-78
2022/09/11 03:10:18;;;;;;;11.10;6.82;;;;;;;20.10;68.23;100084.25;6208784;23;20490;-76
2022/09/11 03:12:45;;;;;;;11.57;5.85;;;;;;;20.08;68.17;100058.25;6213333;23;20021;-78
2022/09/11 03:15:14;;;;;;;12.35;5.88;;;;;;;20.34;67.63;100072.03;6212130;23;20032;-78
2022/09/11 03:17:41;;;;;;;8.82;4.93;;;;;;;20.33;67.35;100073.19;6213672;23;20352;-78
2022/09/11 03:20:08;;;;;;;10.55;6.10;;;;;;;20.40;67.11;100072.59;6220314;23;20020;-78
2022/09/11 03:22:35;;;;;;;11.15;5.35;;;;;;;20.39;67.71;100067.28;6214032;23;20021;-77
2022/09/11 03:25:03;;;;;;;9.88;5.55;;;;;;;20.39;67.28;100055.94;6211770;23;20027;-78
2022/09/11 03:27:30;;;;;;;7.47;5.22;;;;;;;20.39;67.63;100062.44;6212739;23;20028;-78
2022/09/11 03:29:57;;;;;;;10.57;4.70;;;;;;;20.34;67.71;100062.69;6211085;23;20020;-78
2022/09/11 03:32:24;;;;;;;10.93;4.78;;;;;;;20.28;67.82;100058.47;6211264;23;20467;-78
2022/09/11 03:34:51;;;;;;;10.25;5.32;;;;;;;20.32;67.57;100043.19;6211666;23;20033;-78
2022/09/11 03:37:17;;;;;;;10.27;4.90;;;;;;;20.24;67.66;100034.81;6213221;23;20027;-79
2022/09/11 03:39:44;;;;;;;7.22;4.57;;;;;;;20.44;67.39;100048.00;6212857;23;20032;-78
2022/09/11 03:42:11;;;;;;;7.55;4.28;;;;;;;20.29;67.68;100034.59;6214351;23;20467;-78
2022/09/11 03:44:39;;;;;;;9.90;5.05;;;;;;;20.36;68.04;100046.13;6212993;23;20032;-77
2022/09/11 03:47:07;;;;;;;8.15;4.63;;;;;;;20.24;68.25;100049.00;6211913;23;20463;-76
2022/09/11 03:49:34;;;;;;;9.45;4.88;;;;;;;20.10;68.30;100036.06;6212774;23;20483;-77
2022/09/11 03:52:01;;;;;;;8.30;4.55;;;;;;;20.19;67.72;100023.75;6212891;23;20024;-77
2022/09/11 03:54:28;;;;;;;8.98;5.00;;;;;;;20.38;67.54;100048.63;6210654;23;20024;-77
2022/09/11 03:56:55;;;;;;;7.47;4.38;;;;;;;20.28;67.33;100022.41;6211702;23;20017;-77
2022/09/11 03:59:22;;;;;;;6.88;4.13;;;;;;;20.36;67.43;100031.97;6212333;23;20379;-77
2022/09/11 04:01:49;;;;;;;8.82;4.50;;;;;;;20.35;67.21;100027.47;6212974;23;20021;-77
2022/09/11 04:04:16;;;;;;;8.13;4.50;;;;;;;20.50;67.18;100045.75;6210111;23;20202;-77
2022/09/11 04:06:43;;;;;;;10.60;4.55;;;;;;;20.42;67.43;100033.38;6211249;23;20017;-77
2022/09/11 04:09:10;;;;;;;6.20;3.67;;;;;;;20.30;67.16;100014.34;6212111;23;20025;-77
2022/09/11 04:11:40;;;;;;;11.32;5.70;;;;;;;20.52;67.08;100049.09;6212520;23;20033;-77
2022/09/11 04:14:07;;;;;;;;;;;;;;;20.40;67.05;100043.41;6211893;23;20368;-78
2022/09/11 04:16:34;;;;;;;16.27;4.53;;;;;;;20.35;67.11;100050.16;6210158;23;19919;-77
2022/09/11 04:19:01;;;;;;;9.98;4.97;;;;;;;20.23;67.11;100039.66;6213860;23;20083;-77
2022/09/11 04:21:30;;;;;;;7.85;4.30;;;;;;;20.18;67.04;100034.25;6211168;23;20367;-78
2022/09/11 04:23:59;;;;;;;10.20;5.13;;;;;;;20.20;66.80;100042.41;6211215;23;20027;-77
2022/09/11 04:26:31;;;;;;;6.32;3.72;;;;;;;20.16;66.83;100035.78;6211915;23;20025;-77
2022/09/11 04:28:59;;;;;;;8.30;4.38;;;;;;;20.19;66.73;100032.25;6209424;23;20056;-78
2022/09/11 04:31:26;;;;;;;8.25;4.38;;;;;;;20.23;66.86;100036.84;6211139;23;20431;-77
2022/09/11 04:33:54;;;;;;;7.30;4.57;;;;;;;20.26;66.89;100021.94;6209670;23;20024;-77
2022/09/11 04:36:25;;;;;;;8.05;4.15;;;;;;;20.11;67.08;100006.53;6212728;23;20415;-76
2022/09/11 04:38:57;;;;;;;12.05;4.25;;;;;;;20.21;66.81;100012.88;6210848;23;20044;-77
2022/09/11 04:41:25;;;;;;;11.43;4.65;;;;;;;20.12;67.20;99999.66;6214452;23;20020;-77
2022/09/11 04:43:56;;;;;;;7.00;3.53;;;;;;;20.19;67.12;100001.06;6214227;23;20021;-76
2022/09/11 04:46:30;;;;;;;6.18;3.45;;;;;;;19.89;67.79;99995.69;6213063;23;20095;-77
2022/09/11 04:48:58;;;;;;;6.35;4.00;;;;;;;19.72;68.08;99976.13;6214985;23;20031;-77
2022/09/11 04:51:27;;;;;;;7.95;3.42;;;;;;;19.59;68.57;99973.28;6211429;23;20021;-77
2022/09/11 04:53:56;;;;;;;;;;;;;;;19.58;69.37;99999.94;6214823;23;20079;-77
2022/09/11 04:56:28;;;;;;;5.97;3.00;;;;;;;19.59;68.82;100012.94;6212139;23;20251;-77
2022/09/11 04:59:01;;;;;;;6.60;3.75;;;;;;;19.54;68.88;99984.84;6215092;23;20020;-77
2022/09/11 05:01:30;;;;;;;7.13;3.72;;;;;;;19.82;67.95;99996.28;6212464;23;20027;-77
2022/09/11 05:03:59;;;;;;;7.90;3.45;;;;;;;19.72;67.86;99965.59;6214288;23;20020;-77
2022/09/11 05:06:28;;;;;;;6.82;4.15;;;;;;;19.85;67.25;99974.91;6213913;23;20375;-77
2022/09/11 05:09:01;;;;;;;6.43;2.78;;;;;;;19.96;67.87;100015.75;6210693;23;20020;-77
2022/09/11 05:11:29;;;;;;;6.65;3.60;;;;;;;19.86;67.62;99999.22;6209725;23;20336;-77
2022/09/11 05:13:58;;;;;;;7.32;3.45;;;;;;;19.93;67.41;99999.47;6212764;23;20021;-77
2022/09/11 05:16:28;;;;;;;4.85;2.85;;;;;;;19.93;67.16;99993.81;6213437;23;20027;-77
2022/09/11 05:18:56;;;;;;;8.95;3.35;;;;;;;19.96;67.55;100009.25;6215420;23;20020;-77
2022/09/11 05:21:25;;;;;;;4.88;3.20;;;;;;;19.97;67.29;100011.75;6213313;23;20463;-77
2022/09/11 05:23:54;;;;;;;6.40;3.40;;;;;;;19.88;67.05;99994.06;6213768;23;20024;-77
2022/09/11 05:26:32;;;;;;;9.27;4.28;;;;;;;19.86;67.04;99987.91;6215256;23;20455;-77
2022/09/11 05:29:06;;;;;;;6.60;3.40;;;;;;;19.95;67.14;99996.28;6213807;23;20031;-77
2022/09/11 05:31:33;;;;;;;4.28;2.70;;;;;;;19.87;67.58;99998.91;6214495;23;20020;-77
2022/09/11 05:34:02;;;;;;;8.43;3.92;;;;;;;20.04;67.43;100011.16;6215189;23;20025;-78
2022/09/11 05:36:32;;;;;;;7.68;3.20;;;;;;;20.04;67.00;100011.16;6211900;23;20024;-78
2022/09/11 05:38:59;;;;;;;5.95;3.60;;;;;;;20.09;67.04;100025.88;6213306;23;20355;-78
2022/09/11 05:41:26;;;;;;;4.93;3.10;;;;;;;20.07;66.91;100021.78;6212768;23;20459;-78
2022/09/11 05:43:53;;;;;;;5.50;3.28;;;;;;;19.87;67.13;100003.75;6210286;23;20017;-78
2022/09/11 05:46:20;;;;;;;7.57;3.45;;;;;;;19.99;67.06;100006.53;6214240;23;20020;-78
2022/09/11 05:48:47;;;;;;;7.40;2.78;;;;;;;20.03;67.13;100015.16;6213666;23;20021;-78
2022/09/11 05:51:18;;;;;;;8.20;3.30;;;;;;;20.13;66.50;100023.97;6213063;23;20032;-78
2022/09/11 05:53:45;;;;;;;7.13;3.25;;;;;;;20.00;67.05;100025.22;6213546;23;20024;-78
2022/09/11 05:56:13;;;;;;;4.88;3.60;;;;;;;20.02;67.18;100034.16;6214594;23;20030;-78
2022/09/11 05:58:40;;;;;;;5.57;3.42;;;;;;;19.79;66.90;100004.69;6214479;23;20020;-78
2022/09/11 06:01:12;;;;;;;5.47;3.15;;;;;;;19.93;67.00;100021.31;6207153;23;20455;-78
2022/09/11 06:03:40;;;;;;;8.43;3.13;;;;;;;19.90;66.92;100028.53;6212103;23;20355;-78
2022/09/11 06:06:10;;;;;;;8.05;3.65;;;;;;;19.94;66.95;100018.13;6213707;23;20135;-78
2022/09/11 06:08:38;;;;;;;5.55;3.25;;;;;;;19.79;66.94;99999.84;6211484;23;20344;-78
2022/09/11 06:11:07;;;;;;;4.88;2.88;;;;;;;19.95;67.18;100019.78;6212729;23;20032;-78
2022/09/11 06:13:39;;;;;;;5.63;3.67;;;;;;;19.86;67.15;100013.41;6210399;23;20029;-78
2022/09/11 06:16:14;;;;;;;4.50;3.05;;;;;;;19.90;67.12;100028.53;6209195;23;20020;-78
2022/09/11 06:18:48;;;;;;;5.05;2.97;;;;;;;19.72;66.84;100013.78;6212171;23;20179;-78
2022/09/11 06:21:18;;;;;;;6.20;3.13;;;;;;;19.86;66.86;100036.91;6210843;23;20020;-79
2022/09/11 06:23:47;;;;;;;5.18;3.00;;;;;;;19.92;66.83;100048.00;6209816;23;20122;-79
2022/09/11 06:26:17;;;;;;;5.15;3.25;;;;;;;19.88;66.75;100047.88;6209508;23;20029;-78
2022/09/11 06:28:43;;;;;;;;;;;;;;;19.82;67.14;100064.28;6209392;23;20021;-78
2022/09/11 06:31:12;;;;;;;6.53;3.38;;;;;;;19.93;66.94;100060.97;6209546;23;19923;-78
2022/09/11 06:33:39;;;;;;;5.05;3.28;;;;;;;19.92;67.13;100057.31;6211749;23;20036;-78
2022/09/11 06:36:10;;;;;;;6.03;3.28;;;;;;;19.92;67.13;100060.16;6211526;23;20020;-78
2022/09/11 06:38:37;;;;;;;6.55;3.25;;;;;;;19.62;67.26;100015.06;6211108;23;20023;-77
2022/09/11 06:41:11;;;;;;;8.35;3.55;;;;;;;19.81;67.27;100031.47;6212007;23;20033;-76
2022/09/11 06:43:39;;;;;;;6.03;3.15;;;;;;;19.95;67.30;100052.97;6213023;23;20024;-77
2022/09/11 06:46:11;;;;;;;5.88;3.10;;;;;;;20.02;67.62;100059.66;6212515;23;20099;-77
2022/09/11 06:48:39;;;;;;;5.03;3.40;;;;;;;20.02;67.45;100053.19;6210611;23;20090;-79
2022/09/11 06:51:10;;;;;;;5.38;2.80;;;;;;;19.83;67.61;100011.31;6212922;23;20044;-79
2022/09/11 06:53:37;;;;;;;4.93;3.03;;;;;;;19.89;67.31;100010.69;6216153;23;20119;-83
2022/09/11 06:56:05;;;;;;;4.38;2.60;;;;;;;19.80;67.47;100017.69;6235470;23;20032;-80
2022/09/11 06:58:32;;;;;;;4.53;2.40;;;;;;;19.85;67.88;100054.25;6232651;23;20021;-80
2022/09/11 07:01:03;;;;;;;5.03;3.33;;;;;;;19.69;68.38;100045.63;6227645;23;20032;-81
2022/09/11 07:03:30;;;;;;;4.15;2.35;;;;;;;19.50;68.13;100009.41;6239011;23;20031;-81
2022/09/11 07:05:57;;;;;;;3.95;2.35;;;;;;;19.70;68.56;100023.81;6237388;23;20052;-79
2022/09/11 07:08:24;;;;;;;5.30;2.40;;;;;;;19.73;68.24;100025.94;6237506;23;20064;-77
2022/09/11 07:10:52;;;;;;;4.63;2.92;;;;;;;20.00;67.98;100028.03;6217499;23;20024;-77
2022/09/11 07:13:19;;;;;;;4.80;3.35;;;;;;;20.05;67.83;100024.13;6215036;23;20024;-76
2022/09/11 07:15:49;;;;;;;4.88;3.55;;;;;;;19.99;68.03;100022.72;6212547;23;20021;-78
2022/09/11 07:18:16;;;;;;;9.80;3.50;;;;;;;19.98;67.94;100004.06;6213119;23;20024;-80
2022/09/11 07:20:43;;;;;;;5.07;3.10;;;;;;;20.32;67.30;100017.69;6216412;23;20024;-80
2022/09/11 07:23:10;;;;;;;3.63;2.53;;;;;;;20.35;67.22;100004.78;6212959;23;20028;-79
2022/09/11 07:25:40;;;;;;;4.97;2.92;;;;;;;20.41;66.79;100011.88;6212123;23;20031;-77
2022/09/11 07:28:06;;;;;;;4.88;2.40;;;;;;;20.52;66.80;100004.53;6213537;23;20025;-87
2022/09/11 07:30:33;;;;;;;3.78;2.30;;;;;;;20.65;66.75;100024.31;6212714;23;20035;-86
2022/09/11 07:33:01;;;;;;;6.70;3.35;;;;;;;20.71;66.34;100000.16;6212641;23;20321;-86
2022/09/11 07:35:27;;;;;;;18.92;6.72;;;;;;;21.20;65.72;100011.25;6211390;23;20031;-86
2022/09/11 07:37:54;;;;;;;6.30;2.78;;;;;;;21.20;65.22;99966.63;6211870;23;20032;-79
2022/09/11 07:40:21;;;;;;;5.32;3.25;;;;;;;21.15;65.04;99980.28;6211054;23;20021;-85
2022/09/11 07:42:48;;;;;;;6.03;3.10;;;;;;;21.47;64.73;100010.34;6210279;23;20084;-82
2022/09/11 07:45:15;;;;;;;4.57;2.70;;;;;;;21.75;64.23;100030.13;6208897;23;20028;-85
2022/09/11 07:47:47;;;;;;;6.72;2.78;;;;;;;21.63;63.71;100032.22;6207772;23;20524;-77
2022/09/11 07:50:16;;;;;;;6.45;3.50;;;;;;;21.90;63.54;100024.78;6211835;23;20359;-84
2022/09/11 07:52:44;;;;;;;4.25;2.63;;;;;;;22.05;63.11;100004.03;6211880;23;20025;-85
2022/09/11 07:55:10;;;;;;;5.55;2.90;;;;;;;22.61;62.38;100028.41;6210385;23;20343;-87
2022/09/11 07:57:37;;;;;;;7.65;2.90;;;;;;;22.82;61.40;100028.03;6213551;23;20025;-87
2022/09/11 08:00:06;;;;;;;6.22;2.45;;;;;;;22.78;60.74;100013.72;6209597;23;20028;-87
2022/09/11 08:02:33;;;;;;;4.72;2.92;;;;;;;23.05;60.69;100037.47;6208799;23;20431;-84
2022/09/11 08:05:01;;;;;;;10.13;2.72;;;;;;;22.90;60.66;99999.28;6212634;23;20028;-85
2022/09/11 08:07:28;;;;;;;5.13;2.45;;;;;;;23.48;60.30;100043.09;6213772;23;20039;-84
2022/09/11 08:09:55;;;;;;;5.40;2.83;;;;;;;23.64;59.67;100007.56;6187582;23;20025;-82
2022/09/11 08:12:42;;;;;;;6.10;2.53;;;;;;;24.17;58.59;100038.16;6215847;23;20407;-83
2022/09/11 08:15:09;;;;;;;4.68;2.58;;;;;;;24.40;57.75;100017.25;6214465;23;20024;-83
2022/09/11 08:17:36;;;;;;;3.97;2.45;;;;;;;24.54;57.48;100034.59;6216315;23;20027;-83
2022/09/11 08:20:04;;;;;;;3.33;2.58;;;;;;;24.50;57.30;100002.31;6215974;23;20487;-84
2022/09/11 08:22:31;;;;;;;5.05;3.05;;;;;;;24.81;56.52;100039.00;6215395;23;20482;-84
2022/09/11 08:24:58;;;;;;;4.38;2.38;;;;;;;24.79;56.41;100035.75;6214854;23;20028;-84
2022/09/11 08:27:24;;;;;;;4.00;2.00;;;;;;;24.80;56.38;100010.84;6213828;23;20035;-84
2022/09/11 08:29:52;;;;;;;4.72;2.60;;;;;;;25.20;55.50;100055.00;6215662;23;20021;-84
2022/09/11 08:32:19;;;;;;;5.25;2.28;;;;;;;25.26;55.26;100039.97;6215927;23;20025;-84
2022/09/11 08:34:46;;;;;;;3.10;2.15;;;;;;;25.81;54.62;100041.25;6216108;23;20813;-83
2022/09/11 08:37:13;;;;;;;4.05;1.80;;;;;;;26.23;53.89;100057.94;6214128;23;20095;-84
2022/09/11 08:39:40;;;;;;;4.50;2.20;;;;;;;26.51;53.74;100054.44;6217250;23;20052;-84
2022/09/11 08:42:17;;;;;;;4.35;2.40;;;;;;;26.53;53.21;100025.38;6216838;23;20431;-84
2022/09/11 08:44:49;;;;;;;3.58;2.47;;;;;;;26.98;52.76;100040.31;6216779;23;20054;-84
2022/09/11 08:47:21;;;;;;;4.60;2.78;;;;;;;27.07;52.14;100020.66;6217007;23;20024;-84
2022/09/11 08:49:58;;;;;;;6.07;3.10;;;;;;;27.13;52.33;100054.28;6216885;23;20020;-84
2022/09/11 08:52:25;;;;;;;6.00;3.38;;;;;;;27.20;51.78;100010.50;6215105;23;20021;-84
2022/09/11 08:54:56;;;;;;;7.50;3.63;;;;;;;27.79;51.02;100039.63;6215535;23;20017;-84
2022/09/11 08:57:38;;;;;;;5.35;3.00;;;;;;;27.92;50.82;100051.53;6216904;23;20467;-84
2022/09/11 09:00:22;;;;;;;4.57;2.97;;;;;;;28.17;50.53;100042.06;6217315;23;20060;-84
2022/09/11 09:02:55;;;;;;;4.88;3.15;;;;;;;28.39;49.83;100055.16;6215585;23;20024;-84
2022/09/11 09:05:53;;;;;;;5.00;2.72;;;;;;;28.81;49.40;100047.63;6216742;23;20490;-83
2022/09/11 09:08:23;;;;;;;5.30;2.95;;;;;;;29.19;48.98;100047.88;6216832;23;20095;-83
2022/09/11 09:11:14;;;;;;;4.78;3.47;;;;;;;29.29;48.47;100044.09;6217121;23;20025;-84
2022/09/11 09:14:05;;;;;;;5.28;2.75;;;;;;;29.32;48.59;100028.88;6216741;23;20020;-84
2022/09/11 09:16:56;;;;;;;5.03;2.88;;;;;;;29.80;47.89;100039.63;6215640;23;20032;-84
2022/09/11 09:19:50;;;;;;;4.68;3.30;;;;;;;29.80;47.38;100021.56;6213948;23;20017;-84
2022/09/11 09:22:34;;;;;;;8.15;3.75;;;;;;;30.23;46.70;100030.63;6215814;23;20029;-85
2022/09/11 09:25:08;;;;;;;4.68;2.97;;;;;;;30.77;45.84;100042.38;6215668;23;20033;-84
2022/09/11 09:27:59;;;;;;;4.85;2.90;;;;;;;30.70;45.80;100022.22;6215781;23;20021;-84
2022/09/11 09:30:28;;;;;;;3.20;2.15;;;;;;;30.88;45.29;100031.50;6215712;23;20096;-85
2022/09/11 09:33:21;;;;;;;4.65;2.75;;;;;;;31.33;45.11;100037.06;6215156;23;20031;-83
2022/09/11 09:35:49;;;;;;;5.03;3.42;;;;;;;31.41;44.55;100014.69;6215465;23;20021;-83
2022/09/11 09:38:20;;;;;;;5.07;3.25;;;;;;;31.53;44.30;100030.59;6215268;23;20058;-83
2022/09/11 09:41:10;;;;;;;5.63;3.60;;;;;;;31.59;44.17;100037.47;6215077;23;20486;-83
2022/09/11 09:43:59;;;;;;;7.35;4.22;;;;;;;31.48;44.10;100028.19;6215203;23;20017;-84
2022/09/11 09:46:43;;;;;;;6.88;3.70;;;;;;;31.71;43.51;100025.34;6213488;23;20035;-83
2022/09/11 09:49:26;;;;;;;5.15;3.13;;;;;;;31.66;43.31;100013.47;6215153;23;20027;-83
2022/09/11 09:51:55;;;;;;;6.00;3.58;;;;;;;31.75;43.38;100034.75;6216965;23;20020;-84
2022/09/11 09:54:32;;;;;;;7.25;4.47;;;;;;;31.57;42.50;99999.59;6217404;23;20028;-83
2022/09/11 09:57:03;;;;;;;6.78;3.67;;;;;;;31.92;42.91;100037.78;6217503;23;20021;-83
2022/09/11 09:59:42;;;;;;;6.65;3.35;;;;;;;31.97;42.96;100041.00;6217620;23;20017;-84
2022/09/11 10:02:08;;;;;;;6.97;3.42;;;;;;;32.44;42.46;100045.94;6217938;23;20029;-84
2022/09/11 10:04:35;;;;;;;5.05;3.53;;;;;;;32.80;41.14;100028.66;6218009;23;20025;-83
2022/09/11 10:07:18;;;;;;;6.72;3.70;;;;;;;32.72;40.92;100019.34;6218158;23;20027;-82
2022/09/11 10:09:50;;;;;;;5.30;3.47;;;;;;;32.75;40.74;100009.78;6215397;23;20021;-82
2022/09/11 10:12:21;;;;;;;5.57;3.05;;;;;;;32.97;40.94;100020.91;6216394;23;20031;-83
2022/09/11 10:14:53;;;;;;;10.90;4.72;;;;;;;32.95;40.61;100032.91;6214921;23;20025;-83
2022/09/11 10:17:28;;;;;;;6.93;4.43;;;;;;;32.74;40.71;100011.03;6216375;23;20021;-84
2022/09/11 10:20:11;;;;;;;7.13;4.20;;;;;;;32.95;40.54;100003.97;6214610;23;20017;-84
2022/09/11 10:22:37;;;;;;;8.80;4.13;;;;;;;33.29;39.82;100016.44;6216270;23;20348;-84
2022/09/11 10:25:09;;;;;;;7.78;4.45;;;;;;;33.59;39.96;100021.94;6214532;23;20463;-84
2022/09/11 10:27:49;;;;;;;6.80;4.20;;;;;;;33.33;39.83;100017.16;6214789;23;20020;-84
2022/09/11 10:30:30;;;;;;;8.10;3.92;;;;;;;33.39;40.13;100009.56;6216494;23;20043;-85
2022/09/11 10:32:59;;;;;;;8.30;5.00;;;;;;;33.58;39.37;100013.72;6215568;23;20017;-84
2022/09/11 10:35:32;;;;;;;8.23;4.53;;;;;;;33.44;39.67;99998.28;6216529;23;20052;-84
2022/09/11 10:38:16;;;;;;;8.98;5.38;;;;;;;33.43;39.62;99995.84;6223393;23;20031;-84
2022/09/11 10:41:08;;;;;;;8.38;4.80;;;;;;;33.86;38.95;100001.38;6236168;23;20021;-85
2022/09/11 10:43:59;;;;;;;4.55;3.60;;;;;;;34.00;38.78;100003.13;6235364;23;20025;-85
2022/09/11 10:46:32;;;;;;;7.20;4.68;;;;;;;34.14;38.06;99994.03;6232576;23;20024;-84
2022/09/11 10:49:05;;;;;;;6.75;4.00;;;;;;;34.01;37.94;100019.22;6235772;23;20020;-85
2022/09/11 10:51:53;;;;;;;6.03;3.67;;;;;;;33.88;37.80;100003.81;6234224;23;20076;-85
2022/09/11 10:54:37;;;;;;;5.30;3.38;;;;;;;33.39;38.71;99989.31;6236092;23;20012;-84
2022/09/11 10:57:29;;;;;;;6.03;3.35;;;;;;;33.22;39.30;100003.75;6234281;23;20099;-85
2022/09/11 11:00:05;;;;;;;5.20;3.70;;;;;;;33.24;38.88;100001.25;6238046;23;20021;-85
2022/09/11 11:02:36;;;;;;;5.03;3.67;;;;;;;33.36;38.36;99976.56;6238374;23;20024;-85
2022/09/11 11:05:28;;;;;;;6.38;3.55;;;;;;;33.24;38.52;99986.78;6238196;23;20016;-84
2022/09/11 11:08:03;;;;;;;4.82;3.55;;;;;;;32.75;38.86;100000.25;6240050;23;20076;-84
2022/09/11 11:10:50;;;;;;;5.30;3.92;;;;;;;33.04;38.96;99991.81;6240336;23;20016;-84
2022/09/11 11:13:41;;;;;;;5.38;3.70;;;;;;;33.46;38.63;99983.34;6241962;23;20080;-84
2022/09/11 11:16:38;;;;;;;7.00;3.80;;;;;;;33.60;38.20;99983.00;6242378;23;20259;-84
2022/09/11 11:19:42;;;;;;;5.85;3.90;;;;;;;34.11;38.35;99994.13;6243294;23;20064;-85
2022/09/11 11:22:21;;;;;;;6.75;3.72;;;;;;;34.33;37.31;99983.56;6244412;23;20081;-85
2022/09/11 11:24:53;;;;;;;6.80;4.00;;;;;;;34.26;37.41;99994.53;6244098;23;20012;-84
2022/09/11 11:27:32;;;;;;;6.38;3.35;;;;;;;34.00;37.49;99955.91;6242532;23;20060;-84
2022/09/11 11:30:18;;;;;;;;;;;;;;;33.65;39.07;99979.59;6242529;23;20072;-83
2022/09/11 11:33:03;;;;;;;7.22;3.70;;;;;;;33.84;38.13;99980.72;6241038;23;19931;-84
2022/09/11 11:36:03;;;;;;;6.85;3.97;;;;;;;33.60;38.07;99951.16;6217740;23;20021;-84
2022/09/11 11:38:32;;;;;;;10.77;4.28;;;;;;;34.14;37.51;99976.63;6219541;23;20020;-85
2022/09/11 11:41:08;;;;;;;8.35;4.97;;;;;;;34.45;36.43;99950.09;6217514;23;20051;-85
2022/09/11 11:43:39;;;;;;;5.55;3.60;;;;;;;34.49;36.13;99950.78;6219457;23;20426;-86
2022/09/11 11:46:32;;;;;;;7.55;3.72;;;;;;;34.66;36.19;99971.84;6217127;23;20021;-86
2022/09/11 11:49:04;;;;;;;6.97;4.20;;;;;;;35.10;35.74;99961.38;6220538;23;20031;-85
2022/09/11 11:51:43;;;;;;;6.88;3.67;;;;;;;35.33;34.75;99950.69;6220739;23;20024;-84
2022/09/11 11:54:24;;;;;;;;;;;;;;;35.67;35.58;99984.81;6221924;23;20028;-84